DAUG/GHA METAR and TAF weather

Enter ICAO airport designator
Station Type Date Time Source
DAUG METAR 2019/10/21 22:00 UTC NOAA

DAUG 212200Z 00000KT CAVOK 24/11 Q1015


Station Type Date Time Source
DAUG Decoded METAR 2019/10/21 22:00 UTC NOAA

Ghardaia, Algeria (DAUG) 32-23N 003-49E 450M
Oct 21, 2019 - 06:00 PM EDT / 2019.10.21 2200 UTC
Wind: Calm:0
Visibility: greater than 7 mile(s):0
Temperature: 75 F (24 C)
Dew Point: 51 F (11 C)
Relative Humidity: 43%
Pressure (altimeter): 29.97 in. Hg (1015 hPa)
ob: DAUG 212200Z 00000KT CAVOK 24/11 Q1015
cycle: 22

Station Type Date Time Source
DAUG TAF 2019/10/21 18:33 UTC NOAA

TAF DAUG 211700Z 2118/2218 09008KT 9999 SCT040
BECMG 2209/2212 18014KT
TEMPO 2211/2218 22015G25KT 4000 DRSA PROB40
TEMPO 2213/2216 22020G30KT 1500 BLSA FEW040CB

Example: see airport list